Aeroporto :
LOGIN :

Iscrizione | Disclaimer

   EN    FR    IT 

 










Sommario :    VFR   VFR Marginale   IFR   IFR Intensivo   IFR Molto Intensivo
Visibilità : 
Base nubi : 
>= 8 km
>= 3000ft
5 / 8 km
1000 / 3000 ft
1500m / 5 km
500 / 1000 ft
800 / 1500m
200 / 500 ft
< 800m
< 200 ft
Simboli :   Temporali  Nebbia  Neve Forte  Precipitazioni Forti  Vento > 20 kt
SIGMETs :   Varie  Temporali  Ghiacco  Turbolenza  Onda orograficha  Ceneri Vulcaniche






- Altitudine del aeroporto : 11 ft
- Codice IATA : SXL


EISG - Sligo

ULTIMO METAR :
  • 171230Z 26018KT 9999 VCSH FEW020CB SCT020 07/03 Q1001

METARs OBSOLETI :
  • 171200Z 27024G44KT 9999 FEW027 SCT032 06/04 Q1000
  • 171130Z 25019KT 9999 SCT034 06/03 Q0999
  • 171100Z 25021KT 9999 SCT033 SCT042 06/03 Q0999
  • 171030Z 24017KT 9999 FEW011 SCT032 SCT040 06/04 Q0998

TAF TAF EISG
Valido dal 17 a 12 ore il 17 a 21 ore UTC


171100Z 1712/1721 24015G25KT 9999 FEW012 SCT025
TEMPO 1712/1718 24020G36KT 4000 SHRAGS BKN012 BKN018CB



MetMap, La meteo Aeronautica in un colpo d'occhio ! - Copyright ORBIFLY Dicembre 2007 - Disclaimer

ORBIFLY MET'MAP TEAM :

Programmazione e sviluppo : Alexandra Zaïnal
Concezione : Baudouin d'Aumeries
Aiuto per la programmazione : Marc-Olivier Méhu
Supporto tecnico e logistico : Manuel Goepfert
Aiuto per la traduzione : Arnaldo La Scala

Contatto : metmap@orbifly.com




FONTI E CREDITI :

   NOAA